createdAt,value
2017-07-06T00:00:20.173Z,21.13
2017-07-06T00:02:48.571Z,18.87
2017-07-06T00:05:16.984Z,19.93
2017-07-06T00:07:44.712Z,19.70
2017-07-06T00:10:13.101Z,17.60
2017-07-06T00:12:41.548Z,21.03
2017-07-06T00:15:09.947Z,19.40
2017-07-06T00:17:38.351Z,25.60
2017-07-06T00:20:06.890Z,18.83
2017-07-06T00:22:35.287Z,18.57
2017-07-06T00:25:03.688Z,18.80
2017-07-06T00:27:32.207Z,17.87
2017-07-06T00:30:01.387Z,16.97
2017-07-06T00:32:30.023Z,16.30
2017-07-06T00:34:58.784Z,18.37
2017-07-06T00:37:27.161Z,19.07
2017-07-06T00:39:55.566Z,17.87
2017-07-06T00:42:23.984Z,19.60
2017-07-06T00:44:52.372Z,20.77
2017-07-06T00:47:20.773Z,18.50
2017-07-06T00:49:49.195Z,18.30
2017-07-06T00:52:17.598Z,19.17
2017-07-06T00:54:46.003Z,19.17
2017-07-06T00:57:15.413Z,20.73
2017-07-06T00:59:43.802Z,18.53
2017-07-06T01:02:12.181Z,23.20
2017-07-06T01:04:40.679Z,20.57
2017-07-06T01:07:09.081Z,20.63
2017-07-06T01:09:37.470Z,19.80
2017-07-06T01:12:06.003Z,18.77
2017-07-06T01:14:34.400Z,22.07
2017-07-06T01:17:02.792Z,19.60
2017-07-06T01:19:30.521Z,18.97
2017-07-06T01:21:59.016Z,17.47
2017-07-06T01:24:27.390Z,20.97
2017-07-06T01:26:55.812Z,21.10
2017-07-06T01:29:24.201Z,18.90
2017-07-06T01:31:52.593Z,18.70
2017-07-06T01:34:21.772Z,17.90
2017-07-06T01:36:50.202Z,17.03
2017-07-06T01:39:18.598Z,16.97
2017-07-06T01:41:47.230Z,18.67
2017-07-06T01:44:16.047Z,18.30
2017-07-06T01:46:44.446Z,17.27
2017-07-06T01:49:12.646Z,16.97
2017-07-06T01:51:41.057Z,16.10
2017-07-06T01:54:09.454Z,19.40
2017-07-06T01:56:37.190Z,18.30
2017-07-06T01:59:06.000Z,17.57
2017-07-06T02:01:34.057Z,17.20
2017-07-06T02:04:02.776Z,21.20
2017-07-06T02:06:31.182Z,20.13
2017-07-06T02:08:59.573Z,20.37
2017-07-06T02:11:27.980Z,18.97
2017-07-06T02:13:56.373Z,22.70
2017-07-06T02:16:24.775Z,18.53
2017-07-06T02:18:53.316Z,19.77
2017-07-06T02:21:21.703Z,22.20
2017-07-06T02:23:50.107Z,18.40
2017-07-06T02:26:19.398Z,18.77
2017-07-06T02:28:47.799Z,19.60
2017-07-06T02:31:16.253Z,21.10
2017-07-06T02:33:44.895Z,16.70
2017-07-06T02:36:14.049Z,18.40
2017-07-06T02:38:42.433Z,18.67
2017-07-06T02:41:11.821Z,17.57
2017-07-06T02:43:39.889Z,19.20
2017-07-06T02:46:08.287Z,16.80
2017-07-06T02:48:37.248Z,15.37
2017-07-06T02:51:05.649Z,15.23
2017-07-06T02:53:34.041Z,17.10
2017-07-06T02:56:02.637Z,17.97
2017-07-06T02:58:31.027Z,17.43
2017-07-06T03:01:00.205Z,17.00
2017-07-06T03:03:28.708Z,15.37
2017-07-06T03:05:57.785Z,15.20
2017-07-06T03:08:26.184Z,15.93
2017-07-06T03:10:55.593Z,13.50
2017-07-06T03:13:24.763Z,15.30
2017-07-06T03:15:53.156Z,14.93
2017-07-06T03:18:21.756Z,15.20
2017-07-06T03:20:50.130Z,15.97
2017-07-06T03:23:19.287Z,14.47
2017-07-06T03:25:47.729Z,15.37
2017-07-06T03:28:15.777Z,14.53
2017-07-06T03:30:44.197Z,15.40
2017-07-06T03:33:13.051Z,13.47
2017-07-06T03:35:41.534Z,14.77
2017-07-06T03:38:09.959Z,14.67
2017-07-06T03:40:38.385Z,15.10
2017-07-06T03:43:06.798Z,14.80
2017-07-06T03:45:35.191Z,13.77
2017-07-06T03:48:03.820Z,15.00
2017-07-06T03:50:32.974Z,15.63
2017-07-06T03:53:01.359Z,16.23
2017-07-06T03:55:29.670Z,14.60
2017-07-06T03:57:58.827Z,15.37
2017-07-06T04:00:27.239Z,15.27
2017-07-06T04:02:56.353Z,15.47
2017-07-06T04:05:24.752Z,16.00
2017-07-06T04:07:52.800Z,16.10
2017-07-06T04:10:21.396Z,15.47
2017-07-06T04:12:49.774Z,17.63
2017-07-06T04:15:18.183Z,15.20
2017-07-06T04:17:46.823Z,19.93
2017-07-06T04:20:15.212Z,18.37
2017-07-06T04:22:43.626Z,18.10
2017-07-06T04:25:12.052Z,16.93
2017-07-06T04:27:41.222Z,17.20
2017-07-06T04:30:09.625Z,15.90
2017-07-06T04:32:38.930Z,17.43
2017-07-06T04:35:08.086Z,16.90
2017-07-06T04:37:36.474Z,19.63
2017-07-06T04:40:04.971Z,19.00
2017-07-06T04:42:34.140Z,19.60
2017-07-06T04:45:01.845Z,18.47
2017-07-06T04:47:30.406Z,17.77
2017-07-06T04:49:59.560Z,19.33
2017-07-06T04:52:27.959Z,19.80
2017-07-06T04:54:56.490Z,20.47
2017-07-06T04:57:24.903Z,21.90
2017-07-06T04:59:53.296Z,21.87
2017-07-06T05:02:22.122Z,22.37
2017-07-06T05:04:55.391Z,22.50
2017-07-06T05:07:24.486Z,25.50
2017-07-06T05:09:52.901Z,26.30
2017-07-06T05:12:21.292Z,29.37
2017-07-06T05:14:49.877Z,25.93
2017-07-06T05:17:18.298Z,30.60
2017-07-06T05:19:46.717Z,33.33
2017-07-06T05:22:15.119Z,32.80
2017-07-06T05:24:43.513Z,28.17
2017-07-06T05:27:11.931Z,27.50
2017-07-06T05:29:41.143Z,30.83
2017-07-06T05:32:09.571Z,30.83
2017-07-06T05:34:38.990Z,36.83
2017-07-06T05:37:07.396Z,33.70
2017-07-06T05:39:35.823Z,36.20
2017-07-06T05:42:04.285Z,31.97
2017-07-06T05:44:32.680Z,36.10
2017-07-06T05:47:01.087Z,35.10
2017-07-06T05:49:29.519Z,36.73
2017-07-06T05:51:57.919Z,33.67
2017-07-06T05:54:26.336Z,37.83
2017-07-06T05:56:54.746Z,40.20
2017-07-06T05:59:23.134Z,44.50
2017-07-06T06:01:51.349Z,47.97
2017-07-06T06:04:19.785Z,40.67
2017-07-06T06:06:48.183Z,40.27
2017-07-06T06:09:16.572Z,43.37
2017-07-06T06:11:45.013Z,39.70
2017-07-06T06:14:13.395Z,44.93
2017-07-06T06:16:41.814Z,43.07
2017-07-06T06:19:10.233Z,39.40
2017-07-06T06:21:39.401Z,33.70
2017-07-06T06:24:07.789Z,37.07
2017-07-06T06:26:37.033Z,35.27
2017-07-06T06:29:05.439Z,42.17
2017-07-06T06:31:33.840Z,37.03
2017-07-06T06:34:02.306Z,34.13
2017-07-06T06:36:30.710Z,35.53
2017-07-06T06:38:59.907Z,38.27
2017-07-06T06:41:29.147Z,34.67
2017-07-06T06:43:57.551Z,38.20
2017-07-06T06:46:25.970Z,40.97
2017-07-06T06:48:54.381Z,40.73
2017-07-06T06:51:22.784Z,39.57
2017-07-06T06:53:51.175Z,32.70
2017-07-06T06:56:19.594Z,43.97
2017-07-06T06:58:48.035Z,35.80
2017-07-06T07:01:16.428Z,36.20
2017-07-06T07:03:45.240Z,38.97
2017-07-06T07:06:13.646Z,39.23
2017-07-06T07:08:42.046Z,34.53
2017-07-06T07:11:10.123Z,33.93
2017-07-06T07:13:38.527Z,37.10
2017-07-06T07:16:07.682Z,36.10
2017-07-06T07:18:36.085Z,30.90
2017-07-06T07:21:04.499Z,36.50
2017-07-06T07:23:32.926Z,36.20
2017-07-06T07:26:01.342Z,33.97
2017-07-06T07:28:29.749Z,38.33
2017-07-06T07:30:58.154Z,32.57
2017-07-06T07:33:26.569Z,36.03
2017-07-06T07:35:55.758Z,33.07
2017-07-06T07:38:24.165Z,32.27
2017-07-06T07:40:52.221Z,31.60
2017-07-06T07:43:21.393Z,29.50
2017-07-06T07:45:49.795Z,31.00
2017-07-06T07:48:18.966Z,27.57
2017-07-06T07:50:47.370Z,27.30
2017-07-06T07:53:16.548Z,28.30
2017-07-06T07:55:45.005Z,28.77
2017-07-06T07:58:13.393Z,28.33
2017-07-06T08:00:41.813Z,30.53
2017-07-06T08:03:11.037Z,31.60
2017-07-06T08:05:39.430Z,26.30
2017-07-06T08:08:07.836Z,25.17
2017-07-06T08:10:36.247Z,34.10
2017-07-06T08:13:04.641Z,34.10
2017-07-06T08:15:33.033Z,28.80
2017-07-06T08:18:01.459Z,33.93
2017-07-06T08:20:30.619Z,32.87
2017-07-06T08:22:59.024Z,33.17
2017-07-06T08:25:27.487Z,33.47
2017-07-06T08:27:55.877Z,35.90
2017-07-06T08:30:24.274Z,46.53
2017-07-06T08:32:53.451Z,30.70
2017-07-06T08:35:21.683Z,32.93
2017-07-06T08:37:50.108Z,37.90
2017-07-06T08:40:18.514Z,45.93
2017-07-06T08:42:47.682Z,51.83
2017-07-06T08:45:16.309Z,32.30
2017-07-06T08:47:44.729Z,31.40
2017-07-06T08:50:13.150Z,29.93
2017-07-06T08:52:42.316Z,32.37
2017-07-06T08:55:10.734Z,28.70
2017-07-06T08:57:39.134Z,24.70
2017-07-06T09:00:07.530Z,25.40
2017-07-06T09:02:35.942Z,26.83
2017-07-06T09:05:04.332Z,29.57
2017-07-06T09:07:33.496Z,23.57
2017-07-06T09:10:01.928Z,18.93
2017-07-06T09:12:30.327Z,18.30
2017-07-06T09:14:58.742Z,19.90
2017-07-06T09:17:27.171Z,21.30
2017-07-06T09:19:55.574Z,25.83
2017-07-06T09:22:24.119Z,22.40
2017-07-06T09:24:53.306Z,19.47
2017-07-06T09:27:22.477Z,12.87
2017-07-06T09:29:50.861Z,10.90
2017-07-06T09:32:19.268Z,9.80
2017-07-06T09:34:47.680Z,13.33
2017-07-06T09:37:16.084Z,10.43
2017-07-06T09:39:44.547Z,10.17
2017-07-06T09:42:12.945Z,11.17
2017-07-06T09:44:41.363Z,8.83
2017-07-06T09:47:09.774Z,7.90
2017-07-06T09:49:38.179Z,8.30
2017-07-06T09:52:06.587Z,8.80
2017-07-06T09:54:35.780Z,12.40
2017-07-06T09:57:04.958Z,9.30
2017-07-06T09:59:33.347Z,8.27
2017-07-06T10:02:01.848Z,8.30
2017-07-06T10:04:31.009Z,10.10
2017-07-06T10:06:59.396Z,8.57
2017-07-06T10:09:27.802Z,8.50
2017-07-06T10:11:56.041Z,12.53
2017-07-06T10:14:24.415Z,9.03
2017-07-06T10:16:52.830Z,9.13
2017-07-06T10:19:21.224Z,9.03
2017-07-06T10:21:49.286Z,8.73
2017-07-06T10:24:17.691Z,7.30
2017-07-06T10:26:46.077Z,11.93
2017-07-06T10:29:14.483Z,8.90
2017-07-06T10:31:42.922Z,8.93
2017-07-06T10:34:11.314Z,8.03
2017-07-06T10:36:39.702Z,9.97
2017-07-06T10:39:08.125Z,12.53
2017-07-06T10:41:37.291Z,20.80
2017-07-06T10:44:05.682Z,13.37
2017-07-06T10:46:34.115Z,16.43
2017-07-06T10:49:02.523Z,14.37
2017-07-06T10:51:30.927Z,14.73
2017-07-06T10:54:00.108Z,12.80
2017-07-06T10:56:28.507Z,12.17
2017-07-06T10:58:57.669Z,22.57
2017-07-06T11:01:26.090Z,18.40
2017-07-06T11:03:54.515Z,11.50
2017-07-06T11:06:22.908Z,11.97
2017-07-06T11:08:51.332Z,15.00
2017-07-06T11:11:19.768Z,14.13
2017-07-06T11:13:48.172Z,14.67
2017-07-06T11:16:17.360Z,15.77
2017-07-06T11:18:45.749Z,15.33
2017-07-06T11:21:14.926Z,13.27
2017-07-06T11:23:43.346Z,13.93
2017-07-06T11:26:11.794Z,14.10
2017-07-06T11:28:40.968Z,22.77
2017-07-06T11:31:09.402Z,19.23
2017-07-06T11:33:37.838Z,14.60
2017-07-06T11:36:07.028Z,20.40
2017-07-06T11:38:35.464Z,18.97
2017-07-06T11:41:03.878Z,12.27
2017-07-06T11:43:31.922Z,13.90
2017-07-06T11:46:00.338Z,14.67
2017-07-06T11:48:28.879Z,19.43
2017-07-06T11:50:57.283Z,12.40
2017-07-06T11:53:25.697Z,11.37
2017-07-06T11:55:54.096Z,12.47
2017-07-06T11:58:22.514Z,12.30
2017-07-06T12:00:50.996Z,10.80
2017-07-06T12:03:19.440Z,10.90
2017-07-06T12:05:47.844Z,10.73
2017-07-06T12:08:16.278Z,13.40
2017-07-06T12:10:44.698Z,13.30
2017-07-06T12:13:13.113Z,11.23
2017-07-06T12:15:42.307Z,16.23
2017-07-06T12:18:10.787Z,20.27
2017-07-06T12:20:39.203Z,24.70
2017-07-06T12:23:07.622Z,13.30
2017-07-06T12:25:36.022Z,23.03
2017-07-06T12:28:04.416Z,15.43
2017-07-06T12:30:33.617Z,16.17
2017-07-06T12:33:02.022Z,11.20
2017-07-06T12:35:30.418Z,12.27
2017-07-06T12:37:58.817Z,12.50
2017-07-06T12:40:27.215Z,12.90
2017-07-06T12:42:55.610Z,13.23
2017-07-06T12:45:24.620Z,13.57
2017-07-06T12:47:52.326Z,13.97
2017-07-06T12:50:20.726Z,12.13
2017-07-06T12:52:49.146Z,13.63
2017-07-06T12:55:17.520Z,16.23
2017-07-06T12:57:45.934Z,11.37
2017-07-06T13:00:14.346Z,37.30
2017-07-06T13:02:42.741Z,19.17
2017-07-06T13:05:11.166Z,14.67
2017-07-06T13:07:39.590Z,11.73
2017-07-06T13:10:08.745Z,11.63
2017-07-06T13:12:37.558Z,15.53
2017-07-06T13:15:05.974Z,13.40
2017-07-06T13:17:34.400Z,12.77
2017-07-06T13:20:02.797Z,14.27
2017-07-06T13:22:31.220Z,11.60
2017-07-06T13:24:59.649Z,13.37
2017-07-06T13:29:56.498Z,82.10
2017-07-06T13:32:25.742Z,28.57
2017-07-06T13:34:54.162Z,6.30
2017-07-06T13:37:22.575Z,5.40
2017-07-06T13:39:50.985Z,6.70
2017-07-06T13:42:19.382Z,6.10
2017-07-06T13:44:47.802Z,5.70
2017-07-06T13:47:16.202Z,3.70
2017-07-06T13:49:44.637Z,5.13
2017-07-06T13:52:12.886Z,2.43
2017-07-06T13:54:41.084Z,2.60
2017-07-06T13:57:09.297Z,2.80
2017-07-06T13:59:38.481Z,3.70
2017-07-06T14:02:06.909Z,2.00
2017-07-06T14:04:35.373Z,1.90
2017-07-06T14:07:03.782Z,3.13
2017-07-06T14:09:32.173Z,2.87
2017-07-06T14:11:59.902Z,3.90
2017-07-06T14:14:28.320Z,2.33
2017-07-06T14:16:56.711Z,2.50
2017-07-06T14:19:25.880Z,5.67
2017-07-06T14:21:54.301Z,2.03
2017-07-06T14:24:23.454Z,2.20
2017-07-06T14:26:51.845Z,4.17
2017-07-06T14:29:20.262Z,1.97
2017-07-06T14:31:49.418Z,2.10
2017-07-06T14:34:17.883Z,3.10
2017-07-06T14:36:46.328Z,2.80
2017-07-06T14:39:14.722Z,3.50
2017-07-06T14:41:43.112Z,4.33
2017-07-06T14:44:11.517Z,2.13
2017-07-06T14:46:39.914Z,2.40
2017-07-06T14:49:09.369Z,2.40
2017-07-06T14:51:38.703Z,1.87
2017-07-06T14:54:07.860Z,2.43
2017-07-06T14:56:36.937Z,1.93
2017-07-06T14:59:05.360Z,2.97
2017-07-06T15:01:33.835Z,3.73
2017-07-06T15:04:02.233Z,4.10
2017-07-06T15:06:30.633Z,2.47
2017-07-06T15:08:59.834Z,3.10
2017-07-06T15:11:28.375Z,4.00
2017-07-06T15:13:56.447Z,1.93
2017-07-06T15:16:24.837Z,3.13
2017-07-06T15:18:53.263Z,2.60
2017-07-06T15:21:21.703Z,3.33
2017-07-06T15:23:50.902Z,2.60
2017-07-06T15:26:20.074Z,3.60
2017-07-06T15:28:48.478Z,2.43
2017-07-06T15:31:17.648Z,2.70
2017-07-06T15:33:46.125Z,2.43
2017-07-06T15:36:14.533Z,4.73
2017-07-06T15:38:43.427Z,4.10
2017-07-06T15:41:11.897Z,3.30
2017-07-06T15:43:40.331Z,4.30
2017-07-06T15:46:08.730Z,3.33
2017-07-06T15:48:37.119Z,4.50
2017-07-06T15:51:05.525Z,3.23
2017-07-06T15:53:33.933Z,3.20
2017-07-06T15:56:02.327Z,3.80
2017-07-06T15:58:30.749Z,3.63
2017-07-06T16:00:59.136Z,4.07
2017-07-06T16:03:28.291Z,3.63
2017-07-06T16:05:56.711Z,2.90
2017-07-06T16:08:25.919Z,3.20
2017-07-06T16:10:55.093Z,3.00
2017-07-06T16:13:23.511Z,3.50
2017-07-06T16:15:51.899Z,3.60
2017-07-06T16:18:20.303Z,3.23
2017-07-06T16:20:48.714Z,3.60
2017-07-06T16:23:17.100Z,4.93
2017-07-06T16:25:46.255Z,3.80
2017-07-06T16:28:14.676Z,4.23
2017-07-06T16:30:43.095Z,4.30
2017-07-06T16:33:11.504Z,4.30
2017-07-06T16:35:39.909Z,4.33
2017-07-06T16:38:08.326Z,5.20
2017-07-06T16:40:36.717Z,5.47
2017-07-06T16:43:05.137Z,4.20
2017-07-06T16:45:33.553Z,4.30
2017-07-06T16:48:01.952Z,5.53
2017-07-06T16:50:30.379Z,5.50
2017-07-06T16:52:58.799Z,5.70
2017-07-06T16:55:27.189Z,6.20
2017-07-06T16:57:55.634Z,6.00
2017-07-06T17:00:24.033Z,7.07
2017-07-06T17:02:52.426Z,6.33
2017-07-06T17:05:20.848Z,6.90
2017-07-06T17:07:50.000Z,7.33
2017-07-06T17:10:18.385Z,7.40
2017-07-06T17:12:46.810Z,7.07
2017-07-06T17:15:15.965Z,7.40
2017-07-06T17:17:44.338Z,9.40
2017-07-06T17:20:12.769Z,10.63
2017-07-06T17:22:41.929Z,10.07
2017-07-06T17:25:10.331Z,10.30
2017-07-06T17:27:38.764Z,11.37
2017-07-06T17:30:07.170Z,10.20
2017-07-06T17:32:35.868Z,9.13
2017-07-06T17:35:05.097Z,10.03
2017-07-06T17:37:33.476Z,9.40
2017-07-06T17:40:01.867Z,11.70
2017-07-06T17:42:30.269Z,7.67
2017-07-06T17:44:58.747Z,9.07
2017-07-06T17:47:27.141Z,8.67
2017-07-06T17:49:55.558Z,8.90
2017-07-06T17:52:23.962Z,9.57
2017-07-06T17:54:52.350Z,8.90
2017-07-06T17:57:21.845Z,9.07
2017-07-06T17:59:50.263Z,9.33
2017-07-06T18:02:18.687Z,10.03
2017-07-06T18:04:47.115Z,12.40
2017-07-06T18:07:15.565Z,10.87
2017-07-06T18:09:44.078Z,8.90
2017-07-06T18:12:12.530Z,10.73
2017-07-06T18:14:40.972Z,10.40
2017-07-06T18:17:09.370Z,10.17
2017-07-06T18:19:37.796Z,9.30
2017-07-06T18:22:06.260Z,12.20
2017-07-06T18:24:34.669Z,9.50
2017-07-06T18:27:03.133Z,7.80
2017-07-06T18:29:31.562Z,9.23
2017-07-06T18:32:00.002Z,8.70
2017-07-06T18:34:28.483Z,7.63
2017-07-06T18:36:57.698Z,7.97
2017-07-06T18:39:26.260Z,7.00
2017-07-06T18:41:54.687Z,8.07
2017-07-06T18:44:23.172Z,7.70
2017-07-06T18:46:51.587Z,8.80
2017-07-06T18:49:20.181Z,7.33
2017-07-06T18:51:48.596Z,6.13
2017-07-06T18:54:17.021Z,5.77
2017-07-06T18:56:45.571Z,6.20
2017-07-06T18:59:14.035Z,10.20
2017-07-06T19:01:42.439Z,6.17
2017-07-06T19:04:10.878Z,5.40
2017-07-06T19:06:40.052Z,11.80
2017-07-06T19:09:08.437Z,5.27
2017-07-06T19:11:38.314Z,4.93
2017-07-06T19:14:06.717Z,5.40
2017-07-06T19:16:35.122Z,5.63
2017-07-06T19:19:10.197Z,5.97
2017-07-06T19:21:38.602Z,6.33
2017-07-06T19:24:07.046Z,5.40
2017-07-06T19:26:35.460Z,5.93
2017-07-06T19:29:03.861Z,4.97
2017-07-06T19:31:34.054Z,5.70
2017-07-06T19:34:02.448Z,4.70
2017-07-06T19:36:31.618Z,4.63
2017-07-06T19:39:00.038Z,4.47
2017-07-06T19:41:28.423Z,4.10
2017-07-06T19:43:57.592Z,5.23
2017-07-06T19:46:26.136Z,4.07
2017-07-06T19:48:54.645Z,5.00
2017-07-06T19:51:23.841Z,4.30
2017-07-06T19:53:52.262Z,3.87
2017-07-06T19:56:20.650Z,4.07
2017-07-06T19:58:49.056Z,3.83
2017-07-06T20:01:17.620Z,4.60
2017-07-06T20:03:46.015Z,7.00
2017-07-06T20:06:14.407Z,4.00
2017-07-06T20:08:42.880Z,5.97
2017-07-06T20:11:11.289Z,4.57
2017-07-06T20:13:40.512Z,6.10
2017-07-06T20:16:08.941Z,3.40
2017-07-06T20:18:37.349Z,4.00
2017-07-06T20:21:06.558Z,6.97
2017-07-06T20:23:34.992Z,5.90
2017-07-06T20:26:03.365Z,3.70
2017-07-06T20:28:32.741Z,4.40
2017-07-06T20:31:01.173Z,3.93
2017-07-06T20:33:29.615Z,3.60
2017-07-06T20:35:58.014Z,4.10
2017-07-06T20:38:26.456Z,4.73
2017-07-06T20:40:54.948Z,6.80
2017-07-06T20:43:23.348Z,3.60
2017-07-06T20:45:51.782Z,3.70
2017-07-06T20:48:20.186Z,4.67
2017-07-06T20:50:48.599Z,3.57
2017-07-06T20:53:17.031Z,3.63
2017-07-06T20:55:45.438Z,4.90
2017-07-06T20:58:13.842Z,3.10
2017-07-06T21:00:42.278Z,4.00
2017-07-06T21:03:10.673Z,4.43
2017-07-06T21:05:39.087Z,3.90
2017-07-06T21:08:08.283Z,11.10
2017-07-06T21:10:36.671Z,3.60
2017-07-06T21:13:05.064Z,3.80
2017-07-06T21:15:33.482Z,3.40
2017-07-06T21:18:01.931Z,6.03
2017-07-06T21:20:30.321Z,2.90
2017-07-06T21:22:58.743Z,3.87
2017-07-06T21:25:27.140Z,6.17
2017-07-06T21:27:55.641Z,3.27
2017-07-06T21:30:24.120Z,4.53
2017-07-06T21:32:52.536Z,4.50
2017-07-06T21:35:20.959Z,5.37
2017-07-06T21:37:49.469Z,4.03
2017-07-06T21:40:17.962Z,4.13
2017-07-06T21:42:46.364Z,3.70
2017-07-06T21:45:15.865Z,4.03
2017-07-06T21:47:44.299Z,6.30
2017-07-06T21:50:12.802Z,4.50
2017-07-06T21:52:41.216Z,4.50
2017-07-06T21:55:09.621Z,5.83
2017-07-06T21:57:38.024Z,4.17
2017-07-06T22:00:06.442Z,4.03
2017-07-06T22:02:34.847Z,4.60
2017-07-06T22:05:03.264Z,5.17
2017-07-06T22:07:31.714Z,4.27
2017-07-06T22:10:00.113Z,3.87
2017-07-06T22:12:28.610Z,6.80
2017-07-06T22:14:57.602Z,3.80
2017-07-06T22:17:26.018Z,3.43
2017-07-06T22:19:54.421Z,3.80
2017-07-06T22:22:22.860Z,6.00
2017-07-06T22:24:51.250Z,3.50
2017-07-06T22:27:19.804Z,4.30
2017-07-06T22:29:48.254Z,3.73
2017-07-06T22:32:16.644Z,3.40
2017-07-06T22:34:45.048Z,4.03
2017-07-06T22:37:13.482Z,5.03
2017-07-06T22:39:41.868Z,5.63
2017-07-06T22:42:10.257Z,3.97
2017-07-06T22:44:38.722Z,3.57
2017-07-06T22:47:07.099Z,3.50
2017-07-06T22:49:35.517Z,2.93
2017-07-06T22:52:04.162Z,9.83
2017-07-06T22:54:32.552Z,4.57
2017-07-06T22:57:01.775Z,3.47
2017-07-06T22:59:30.201Z,4.33
2017-07-06T23:02:00.077Z,4.30
2017-07-06T23:04:28.533Z,3.80
2017-07-06T23:06:56.947Z,3.53
2017-07-06T23:09:25.331Z,3.20
2017-07-06T23:11:53.719Z,3.83
2017-07-06T23:14:22.138Z,6.07
2017-07-06T23:16:50.642Z,4.73
2017-07-06T23:19:19.038Z,4.17
2017-07-06T23:21:47.457Z,3.90
2017-07-06T23:24:15.856Z,4.53
2017-07-06T23:26:44.277Z,5.20
2017-07-06T23:29:12.839Z,5.13
2017-07-06T23:31:41.295Z,3.83
2017-07-06T23:34:09.709Z,4.87
2017-07-06T23:36:38.156Z,5.97
2017-07-06T23:39:06.570Z,5.10
2017-07-06T23:41:35.296Z,4.80
2017-07-06T23:44:03.783Z,5.03
2017-07-06T23:46:32.254Z,4.47
2017-07-06T23:49:01.413Z,6.37
2017-07-06T23:51:29.878Z,5.20
2017-07-06T23:53:58.268Z,4.37
2017-07-06T23:56:26.642Z,4.53
2017-07-06T23:58:55.106Z,5.63
